LPPD

João Paulo II Airport

Ponta Delgada, Portugal
TAF LPPD 242300Z 2500/2524 VRB05KT 9999 SCT020 TEMPO 2500/2524 FEW015 BKN035 BECMG 2508/2510 13012KT
Issued Valid From Valid To
Sep-24 @ 23:00 UTC
(2 hours ago)
Sep-25 @ 00:00 UTC
(an hour ago)
Sep-26 @ 00:00 UTC
(in 23 hours)
Sep-25 @ 00:00 to Sep-25 @ 08:00
TAF LPPD 242300Z 2500/2524 VRB05KT 9999 SCT020
Wind Visibility Clouds
Variable at 5 knots 10,000+ meters
  • Scattered at 2,000' AGL
Temporary Sep-25 @ 00:00 to Sep-26 @ 00:00
TEMPO 2500/2524 FEW015 BKN035
Clouds
  • Few at 1,500' AGL
  • Broken at 3,500' AGL
Becoming Sep-25 @ 08:00 to Sep-26 @ 00:00
BECMG 2508/2510 13012KT
Wind Visibility Clouds
130° at 12 knots 10,000+ meters
  • Scattered at 2,000' AGL
TAF LPPD 242300Z 2500/2524 VRB05KT 9999 SCT020 TEMPO 2500/2524 FEW015 BKN035 BECMG 2508/2510 13012KT
Issued Sep-24 @ 23:00 UTC
(2 hours ago)
Valid From Sep-25 @ 00:00 UTC
(an hour ago)
Valid To Sep-26 @ 00:00 UTC
(in 23 hours)
Sep-25 @ 00:00 - Sep-25 @ 08:00
Wind Visibility
Variable at 5 knots 10,000+ meters
Clouds
  • Scattered at 2,000' AGL
Temporary Sep-25 @ 00:00 - Sep-26 @ 00:00
Clouds
  • Few at 1,500' AGL
  • Broken at 3,500' AGL
Becoming Sep-25 @ 08:00 - Sep-26 @ 00:00
Wind Visibility
130° at 12 knots 10,000+ meters
Clouds
  • Scattered at 2,000' AGL